Brookville, Pennsylvania
Current Conditions -  °F | °C
As of 7:53 PM on Saturday 25 Oct 2014 (Local Time) from KDUJ Reporting Station
Broken Clouds Broken Clouds  
Wind Chill: 15°   Ceiling: 6500
Heat Index: 15°   Visibility: 10mi
Dew Point: 10°   Wind: 13mph
Humidity: 72%   Direction: 270°W
Pressure: 29.7"   Gusts: NA
Location:  41.16°N, 79.08°W
Report Text: KDUJ 252353Z AUTO 27011KT 10SM SCT029 SCT048 BKN065 15/10 A2970 RMK AO2 SLP059 T01500100 10172 20144 55002 $
Loading
Personal Weather Stations






























Interactive Weather Map
Tropical Storm Tracking
New forecast layout! Learn more

10-Day Weather Forecast

Advertisements
Track Severe Weather on mobile